CEFAS Endeavour — VQHF3 — position and weather

sailwx.info

Track history (hours):
 
Tides and Currents Weather Stations Pressure Air Temp Water Temp Dewpoint Dewpoint Depression Visibility Wind Speed Wind Dir Waves Ship Positions

Oceanographic research ship CEFAS Endeavour (UK)

Detailed information on ship capabilities available from University of Delaware's Ocean Information Center.

Last reported at 2015-Jan-31 03:33 UTC. Time now 2015-Jan-31 04:01 UTC.
Position N 53°49' E 005°46'.

Length 74 m; draft 5.3 m.

Type: Cargo ship. MMSI: 235005270.

Date/timePositionNaut miles runAvg speedWind from/ knotsBaromVisibWave heightAir tempDewpointWater temp
2015-Jan-31 03:33N 53°49' E 005°46'6 6.3
2015-Jan-31 02:33N 53°47' E 005°37'1413.6
2015-Jan-31 01:33N 53°42' E 005°15'8 7.5
2015-Jan-31 00:33N 53°39' E 005°03'9 7.2
2015-Jan-30 23:19N 53°36' E 004°49'1111.9
2015-Jan-30 22:21N 53°25' E 004°42'29 9.4
2015-Jan-30 19:18N 53°02' E 004°13'1 1.8
2015-Jan-30 18:34N 53°02' E 004°16'2 1.5
2015-Jan-30 17:31N 53°04' E 004°17'3 1.4
2015-Jan-30 15:28N 53°01' E 004°14'3 3.2
2015-Jan-30 14:30N 52°58' E 004°15'4 4.2
2015-Jan-30 13:31N 52°54' E 004°13'1313.4
2015-Jan-30 12:33N 52°44' E 004°01'6 4.1
2015-Jan-30 11:13N 52°38' E 003°59'1 1.6
2015-Jan-30 10:33N 52°38' E 003°57'1211.6
2015-Jan-30 09:32N 52°29' E 003°45'7 5.9
2015-Jan-30 08:23N 52°23' E 003°38'3 3.2
2015-Jan-30 07:26N 52°22' E 003°42'2 2.6
2015-Jan-30 06:31N 52°22' E 003°38'16 3.8
2015-Jan-30 02:19N 52°37' E 003°47'4 5.0
2015-Jan-30 01:33N 52°39' E 003°53'1111.4
2015-Jan-30 00:33N 52°43' E 004°11'6 5.8
2015-Jan-29 23:34N 52°46' E 004°19'1111.4
2015-Jan-29 22:33N 52°36' E 004°09'5 4.7
2015-Jan-29 21:33N 52°32' E 004°11'8 7.6
2015-Jan-29 20:33N 52°25' E 004°15'9 8.8
2015-Jan-29 19:33N 52°16' E 004°10'2 2.4
2015-Jan-29 18:33N 52°14' E 004°12'3 3.4
2015-Jan-29 17:33N 52°14' E 004°06'3 2.6
2015-Jan-29 16:33N 52°14' E 004°11'3 3.2
2015-Jan-29 15:33N 52°14' E 004°16'2 2.2
2015-Jan-29 14:33N 52°15' E 004°19'4 4.3
2015-Jan-29 13:33N 52°18' E 004°23'1010.4
2015-Jan-29 12:33N 52°10' E 004°14'4 4.0
2015-Jan-29 11:33N 52°06' E 004°16'0 0.0
2015-Jan-29 10:32N 52°06' E 004°16'0 0.0
2015-Jan-29 09:32N 52°06' E 004°16'0 0.0
2015-Jan-29 08:32N 52°06' E 004°16'0 0.0
2015-Jan-29 07:29N 52°06' E 004°16'0 0.0
2015-Jan-29 06:32N 52°06' E 004°16'0 0.0
2015-Jan-29 05:32N 52°06' E 004°16'0 0.0
2015-Jan-29 04:32N 52°06' E 004°16'0 0.0
2015-Jan-29 03:32N 52°06' E 004°16'0 0.0
2015-Jan-29 02:32N 52°06' E 004°16'0 0.0
2015-Jan-29 01:32N 52°06' E 004°16'0 0.0
2015-Jan-29 00:32N 52°06' E 004°16'0 0.0
2015-Jan-28 23:32N 52°06' E 004°16'0 0.0
2015-Jan-28 22:32N 52°06' E 004°16'0 0.0
2015-Jan-28 21:32N 52°06' E 004°16'0 0.0
2015-Jan-28 20:32N 52°06' E 004°16'0 0.0
2015-Jan-28 19:32N 52°06' E 004°16'0 0.0
2015-Jan-28 18:32N 52°06' E 004°16'0 0.0
2015-Jan-28 17:32N 52°06' E 004°16'0 0.0
2015-Jan-28 16:32N 52°06' E 004°16'0 0.0
2015-Jan-28 15:32N 52°06' E 004°16'0 0.0
2015-Jan-28 14:26N 52°06' E 004°16'0 0.0
2015-Jan-28 13:32N 52°06' E 004°16'0 0.0
2015-Jan-28 12:32N 52°06' E 004°16'0 0.0
2015-Jan-28 11:32N 52°06' E 004°16'0 0.0
2015-Jan-28 10:32N 52°06' E 004°16'0 0.0
2015-Jan-28 09:17N 52°06' E 004°16'0 0.0
2015-Jan-28 08:32N 52°06' E 004°16'0 0.0
2015-Jan-28 07:32N 52°06' E 004°16'0 0.0
2015-Jan-28 06:32N 52°06' E 004°16'0 0.0
2015-Jan-28 05:32N 52°06' E 004°16'0 0.0
2015-Jan-28 04:29N 52°06' E 004°16'0 0.0
2015-Jan-28 03:32N 52°06' E 004°16'0 0.0
2015-Jan-28 02:32N 52°06' E 004°16'0 0.0
2015-Jan-28 01:32N 52°06' E 004°16'0 0.0
2015-Jan-28 00:32N 52°06' E 004°16'1 1.2
2015-Jan-27 23:33N 52°07' E 004°15'1211.8
2015-Jan-27 22:33N 52°17' E 004°05'1211.5
2015-Jan-27 21:33N 52°24' E 003°49'5613.2
2015-Jan-27 17:21N 52°26' E 002°18'1012.9
2015-Jan-27 16:33N 52°26' E 002°01'10 9.8
2015-Jan-27 15:33N 52°28' E 001°46'1 0.5
2015-Jan-27 14:28N 52°28' E 001°45'0 0.0
2015-Jan-27 13:31N 52°28' E 001°45'0 0.0
2015-Jan-27 12:31N 52°28' E 001°45'0 0.0
2015-Jan-27 11:31N 52°28' E 001°45'0 0.0
2015-Jan-27 10:31N 52°28' E 001°45'0 0.0
2015-Jan-27 09:31N 52°28' E 001°45'0 0.0
2015-Jan-27 08:31N 52°28' E 001°45'0 0.0
2015-Jan-27 07:31N 52°28' E 001°45'0 0.0
2015-Jan-27 06:31N 52°28' E 001°45'0 0.0
2015-Jan-27 05:31N 52°28' E 001°45'0 0.0
2015-Jan-27 04:31N 52°28' E 001°45'0 0.0
2015-Jan-27 03:31N 52°28' E 001°45'0 0.0
2015-Jan-27 02:31N 52°28' E 001°45'0 0.0
2015-Jan-27 01:31N 52°28' E 001°45'0 0.0
2015-Jan-27 00:25N 52°28' E 001°45'0 0.0
2015-Jan-26 23:31N 52°28' E 001°45'0 0.0
2015-Jan-26 22:31N 52°28' E 001°45'0 0.0
2015-Jan-26 21:16N 52°28' E 001°45'0 0.0
2015-Jan-26 20:28N 52°28' E 001°45'0 0.0
2015-Jan-26 19:07N 52°28' E 001°45'0 0.0
2015-Jan-26 18:28N 52°28' E 001°45'0 0.0
2015-Jan-26 08:31N 52°28' E 001°45'0 0.0
2015-Jan-26 07:28N 52°28' E 001°45'0 0.0
2015-Jan-26 06:31N 52°28' E 001°45'0 0.0
2015-Jan-26 05:31N 52°28' E 001°45'0 0.0
2015-Jan-26 04:31N 52°28' E 001°45'0 0.0
2015-Jan-26 03:31N 52°28' E 001°45'0 0.0
2015-Jan-26 02:31N 52°28' E 001°45'0 0.0
2015-Jan-26 01:32N 52°28' E 001°45'0 0.0
2015-Jan-26 00:32N 52°28' E 001°45'0 0.0
2015-Jan-25 23:32N 52°28' E 001°45'0 0.0
2015-Jan-25 22:32N 52°28' E 001°45'0 0.0
2015-Jan-25 21:32N 52°28' E 001°45'0 0.0
2015-Jan-25 20:32N 52°28' E 001°45'0 0.0
2015-Jan-25 19:32N 52°28' E 001°45'0 0.0
2015-Jan-25 18:32N 52°28' E 001°45'0 0.0
2015-Jan-25 17:32N 52°28' E 001°45'0 0.0
2015-Jan-25 16:32N 52°28' E 001°45'0 0.0
2015-Jan-25 15:32N 52°28' E 001°45'0 0.0
2015-Jan-25 14:32N 52°28' E 001°45'0 0.0
2015-Jan-25 13:32N 52°28' E 001°45'0 0.0
2015-Jan-25 12:32N 52°28' E 001°45'0 0.0
2015-Jan-25 11:32N 52°28' E 001°45'0 0.0
2015-Jan-25 10:29N 52°28' E 001°45'0 0.0
2015-Jan-25 09:32N 52°28' E 001°45'0 0.0
2015-Jan-25 08:32N 52°28' E 001°45'0 0.0
2015-Jan-25 07:31N 52°28' E 001°45'0 0.0
2015-Jan-25 06:31N 52°28' E 001°45'0 0.0
2015-Jan-25 05:31N 52°28' E 001°45'0 0.0
2015-Jan-25 04:31N 52°28' E 001°45'0 0.0
2015-Jan-25 03:31N 52°28' E 001°45'0 0.0
2015-Jan-25 02:31N 52°28' E 001°45'0 0.0
2015-Jan-25 01:31N 52°28' E 001°45'0 0.0
2015-Jan-25 00:31N 52°28' E 001°45'0 0.0
2015-Jan-24 23:31N 52°28' E 001°45'0 0.0
2015-Jan-24 22:31N 52°28' E 001°45'0 0.0
2015-Jan-24 21:22N 52°28' E 001°45'0 0.0
2015-Jan-24 20:16N 52°28' E 001°45'0 0.0
2015-Jan-24 19:22N 52°28' E 001°45'0 0.0
2015-Jan-24 18:31N 52°28' E 001°45'0 0.0
2015-Jan-24 17:31N 52°28' E 001°45'0 0.0
2015-Jan-24 16:16N 52°28' E 001°45'0 0.0
2015-Jan-24 15:25N 52°28' E 001°45'0 0.0
2015-Jan-24 14:25N 52°28' E 001°45'0 0.0
2015-Jan-24 13:28N 52°28' E 001°45'0 0.0
2015-Jan-24 11:28N 52°28' E 001°45'0 0.0
2015-Jan-24 02:31N 52°28' E 001°45'0 0.0
2015-Jan-24 00:07N 52°28' E 001°45'0 0.0
2015-Jan-23 23:31N 52°28' E 001°45'0 0.0
2015-Jan-23 22:31N 52°28' E 001°45'0 0.0
2015-Jan-23 21:28N 52°28' E 001°45'0 0.0
2015-Jan-23 20:33N 52°28' E 001°45'0 0.0
2015-Jan-23 19:33N 52°28' E 001°45'0 0.0
2015-Jan-23 18:30N 52°28' E 001°45'0 0.0
2015-Jan-23 17:30N 52°28' E 001°45'0 0.0
2015-Jan-23 16:33N 52°28' E 001°45'0 0.0
2015-Jan-23 15:33N 52°28' E 001°45'0 0.0
2015-Jan-23 14:33N 52°28' E 001°45'0 0.0
2015-Jan-23 13:33N 52°28' E 001°45'0 0.0
2015-Jan-23 12:33N 52°28' E 001°45'0 0.0
2015-Jan-23 11:33N 52°28' E 001°45'0 0.0
2015-Jan-23 10:33N 52°28' E 001°45'1 1.5
2015-Jan-23 09:34N 52°29' E 001°47'4 4.2
2015-Jan-23 08:34N 52°25' E 001°48'4 4.1
2015-Jan-23 07:34N 52°21' E 001°48'5 5.2
2015-Jan-23 06:33N 52°15' E 001°49'7 6.7
2015-Jan-23 05:33N 52°09' E 001°50'8 7.5
2015-Jan-23 04:34N 52°01' E 001°49'9 8.6
2015-Jan-23 03:33N 51°52' E 001°48'9 8.8
2015-Jan-23 02:33N 51°44' E 001°49'9 8.9
2015-Jan-23 01:33N 51°35' E 001°49'9 9.2
2015-Jan-23 00:33N 51°26' E 001°46'9 8.6
2015-Jan-22 23:34N 51°18' E 001°39'9 9.1
2015-Jan-22 22:34N 51°10' E 001°33'9 8.8
2015-Jan-22 21:34N 51°04' E 001°22'14 9.9
2015-Jan-22 20:11N 50°57' E 001°04'5 8.1
2015-Jan-22 19:33N 50°53' E 000°59'1010.2
2015-Jan-22 18:34N 50°47' E 000°45'1010.1
2015-Jan-22 17:33N 50°43' E 000°31'1010.3
2015-Jan-22 16:33N 50°40' E 000°15'2110.4
2015-Jan-22 14:34N 50°35' W 000°16'3110.4
2015-Jan-22 11:33N 50°29' W 001°05'2114.6
2015-Jan-22 10:05N 50°23' W 001°37'5214.9
2015-Jan-22 06:33N 50°12' W 002°57'  
Track history (hours):
 
Tides and Currents Weather Stations Pressure Air Temp Water Temp Dewpoint Dewpoint Depression Visibility Wind Speed Wind Dir Waves Ship Positions

Oceanographic research ship CEFAS Endeavour (UK)

Detailed information on ship capabilities available from University of Delaware's Ocean Information Center.

Last reported at 2015-Jan-31 03:33 UTC. Time now 2015-Jan-31 04:01 UTC.
Position N 53°49' E 005°46'.

Length 74 m; draft 5.3 m.

Type: Cargo ship. MMSI: 235005270.

Date/timePositionNaut miles runAvg speedWind from/ knotsBaromVisibWave heightAir tempDewpointWater temp
2015-Jan-31 03:33N 53°49' E 005°46'6 6.3
2015-Jan-31 02:33N 53°47' E 005°37'1413.6
2015-Jan-31 01:33N 53°42' E 005°15'8 7.5
2015-Jan-31 00:33N 53°39' E 005°03'9 7.2
2015-Jan-30 23:19N 53°36' E 004°49'1111.9
2015-Jan-30 22:21N 53°25' E 004°42'29 9.4
2015-Jan-30 19:18N 53°02' E 004°13'1 1.8
2015-Jan-30 18:34N 53°02' E 004°16'2 1.5
2015-Jan-30 17:31N 53°04' E 004°17'3 1.4
2015-Jan-30 15:28N 53°01' E 004°14'3 3.2
2015-Jan-30 14:30N 52°58' E 004°15'4 4.2
2015-Jan-30 13:31N 52°54' E 004°13'1313.4
2015-Jan-30 12:33N 52°44' E 004°01'6 4.1
2015-Jan-30 11:13N 52°38' E 003°59'1 1.6
2015-Jan-30 10:33N 52°38' E 003°57'1211.6
2015-Jan-30 09:32N 52°29' E 003°45'7 5.9
2015-Jan-30 08:23N 52°23' E 003°38'3 3.2
2015-Jan-30 07:26N 52°22' E 003°42'2 2.6
2015-Jan-30 06:31N 52°22' E 003°38'16 3.8
2015-Jan-30 02:19N 52°37' E 003°47'4 5.0
2015-Jan-30 01:33N 52°39' E 003°53'1111.4
2015-Jan-30 00:33N 52°43' E 004°11'6 5.8
2015-Jan-29 23:34N 52°46' E 004°19'1111.4
2015-Jan-29 22:33N 52°36' E 004°09'5 4.7
2015-Jan-29 21:33N 52°32' E 004°11'8 7.6
2015-Jan-29 20:33N 52°25' E 004°15'9 8.8
2015-Jan-29 19:33N 52°16' E 004°10'2 2.4
2015-Jan-29 18:33N 52°14' E 004°12'3 3.4
2015-Jan-29 17:33N 52°14' E 004°06'3 2.6
2015-Jan-29 16:33N 52°14' E 004°11'3 3.2
2015-Jan-29 15:33N 52°14' E 004°16'2 2.2
2015-Jan-29 14:33N 52°15' E 004°19'4 4.3
2015-Jan-29 13:33N 52°18' E 004°23'1010.4
2015-Jan-29 12:33N 52°10' E 004°14'4 4.0
2015-Jan-29 11:33N 52°06' E 004°16'0 0.0
2015-Jan-29 10:32N 52°06' E 004°16'0 0.0
2015-Jan-29 09:32N 52°06' E 004°16'0 0.0
2015-Jan-29 08:32N 52°06' E 004°16'0 0.0
2015-Jan-29 07:29N 52°06' E 004°16'0 0.0
2015-Jan-29 06:32N 52°06' E 004°16'0 0.0
2015-Jan-29 05:32N 52°06' E 004°16'0 0.0
2015-Jan-29 04:32N 52°06' E 004°16'0 0.0
2015-Jan-29 03:32N 52°06' E 004°16'0 0.0
2015-Jan-29 02:32N 52°06' E 004°16'0 0.0
2015-Jan-29 01:32N 52°06' E 004°16'0 0.0
2015-Jan-29 00:32N 52°06' E 004°16'0 0.0
2015-Jan-28 23:32N 52°06' E 004°16'0 0.0
2015-Jan-28 22:32N 52°06' E 004°16'0 0.0
2015-Jan-28 21:32N 52°06' E 004°16'0 0.0
2015-Jan-28 20:32N 52°06' E 004°16'0 0.0
2015-Jan-28 19:32N 52°06' E 004°16'0 0.0
2015-Jan-28 18:32N 52°06' E 004°16'0 0.0
2015-Jan-28 17:32N 52°06' E 004°16'0 0.0
2015-Jan-28 16:32N 52°06' E 004°16'0 0.0
2015-Jan-28 15:32N 52°06' E 004°16'0 0.0
2015-Jan-28 14:26N 52°06' E 004°16'0 0.0
2015-Jan-28 13:32N 52°06' E 004°16'0 0.0
2015-Jan-28 12:32N 52°06' E 004°16'0 0.0
2015-Jan-28 11:32N 52°06' E 004°16'0 0.0
2015-Jan-28 10:32N 52°06' E 004°16'0 0.0
2015-Jan-28 09:17N 52°06' E 004°16'0 0.0
2015-Jan-28 08:32N 52°06' E 004°16'0 0.0
2015-Jan-28 07:32N 52°06' E 004°16'0 0.0
2015-Jan-28 06:32N 52°06' E 004°16'0 0.0
2015-Jan-28 05:32N 52°06' E 004°16'0 0.0
2015-Jan-28 04:29N 52°06' E 004°16'0 0.0
2015-Jan-28 03:32N 52°06' E 004°16'0 0.0
2015-Jan-28 02:32N 52°06' E 004°16'0 0.0
2015-Jan-28 01:32N 52°06' E 004°16'0 0.0
2015-Jan-28 00:32N 52°06' E 004°16'1 1.2
2015-Jan-27 23:33N 52°07' E 004°15'1211.8
2015-Jan-27 22:33N 52°17' E 004°05'1211.5
2015-Jan-27 21:33N 52°24' E 003°49'5613.2
2015-Jan-27 17:21N 52°26' E 002°18'1012.9
2015-Jan-27 16:33N 52°26' E 002°01'10 9.8
2015-Jan-27 15:33N 52°28' E 001°46'1 0.5
2015-Jan-27 14:28N 52°28' E 001°45'0 0.0
2015-Jan-27 13:31N 52°28' E 001°45'0 0.0
2015-Jan-27 12:31N 52°28' E 001°45'0 0.0
2015-Jan-27 11:31N 52°28' E 001°45'0 0.0
2015-Jan-27 10:31N 52°28' E 001°45'0 0.0
2015-Jan-27 09:31N 52°28' E 001°45'0 0.0
2015-Jan-27 08:31N 52°28' E 001°45'0 0.0
2015-Jan-27 07:31N 52°28' E 001°45'0 0.0
2015-Jan-27 06:31N 52°28' E 001°45'0 0.0
2015-Jan-27 05:31N 52°28' E 001°45'0 0.0
2015-Jan-27 04:31N 52°28' E 001°45'0 0.0
2015-Jan-27 03:31N 52°28' E 001°45'0 0.0
2015-Jan-27 02:31N 52°28' E 001°45'0 0.0
2015-Jan-27 01:31N 52°28' E 001°45'0 0.0
2015-Jan-27 00:25N 52°28' E 001°45'0 0.0
2015-Jan-26 23:31N 52°28' E 001°45'0 0.0
2015-Jan-26 22:31N 52°28' E 001°45'0 0.0
2015-Jan-26 21:16N 52°28' E 001°45'0 0.0
2015-Jan-26 20:28N 52°28' E 001°45'0 0.0
2015-Jan-26 19:07N 52°28' E 001°45'0 0.0
2015-Jan-26 18:28N 52°28' E 001°45'0 0.0
2015-Jan-26 08:31N 52°28' E 001°45'0 0.0
2015-Jan-26 07:28N 52°28' E 001°45'0 0.0
2015-Jan-26 06:31N 52°28' E 001°45'0 0.0
2015-Jan-26 05:31N 52°28' E 001°45'0 0.0
2015-Jan-26 04:31N 52°28' E 001°45'0 0.0
2015-Jan-26 03:31N 52°28' E 001°45'0 0.0
2015-Jan-26 02:31N 52°28' E 001°45'0 0.0
2015-Jan-26 01:32N 52°28' E 001°45'0 0.0
2015-Jan-26 00:32N 52°28' E 001°45'0 0.0
2015-Jan-25 23:32N 52°28' E 001°45'0 0.0
2015-Jan-25 22:32N 52°28' E 001°45'0 0.0
2015-Jan-25 21:32N 52°28' E 001°45'0 0.0
2015-Jan-25 20:32N 52°28' E 001°45'0 0.0
2015-Jan-25 19:32N 52°28' E 001°45'0 0.0
2015-Jan-25 18:32N 52°28' E 001°45'0 0.0
2015-Jan-25 17:32N 52°28' E 001°45'0 0.0
2015-Jan-25 16:32N 52°28' E 001°45'0 0.0
2015-Jan-25 15:32N 52°28' E 001°45'0 0.0
2015-Jan-25 14:32N 52°28' E 001°45'0 0.0
2015-Jan-25 13:32N 52°28' E 001°45'0 0.0
2015-Jan-25 12:32N 52°28' E 001°45'0 0.0
2015-Jan-25 11:32N 52°28' E 001°45'0 0.0
2015-Jan-25 10:29N 52°28' E 001°45'0 0.0
2015-Jan-25 09:32N 52°28' E 001°45'0 0.0
2015-Jan-25 08:32N 52°28' E 001°45'0 0.0
2015-Jan-25 07:31N 52°28' E 001°45'0 0.0
2015-Jan-25 06:31N 52°28' E 001°45'0 0.0
2015-Jan-25 05:31N 52°28' E 001°45'0 0.0
2015-Jan-25 04:31N 52°28' E 001°45'0 0.0
2015-Jan-25 03:31N 52°28' E 001°45'0 0.0
2015-Jan-25 02:31N 52°28' E 001°45'0 0.0
2015-Jan-25 01:31N 52°28' E 001°45'0 0.0
2015-Jan-25 00:31N 52°28' E 001°45'0 0.0
2015-Jan-24 23:31N 52°28' E 001°45'0 0.0
2015-Jan-24 22:31N 52°28' E 001°45'0 0.0
2015-Jan-24 21:22N 52°28' E 001°45'0 0.0
2015-Jan-24 20:16N 52°28' E 001°45'0 0.0
2015-Jan-24 19:22N 52°28' E 001°45'0 0.0
2015-Jan-24 18:31N 52°28' E 001°45'0 0.0
2015-Jan-24 17:31N 52°28' E 001°45'0 0.0
2015-Jan-24 16:16N 52°28' E 001°45'0 0.0
2015-Jan-24 15:25N 52°28' E 001°45'0 0.0
2015-Jan-24 14:25N 52°28' E 001°45'0 0.0
2015-Jan-24 13:28N 52°28' E 001°45'0 0.0
2015-Jan-24 11:28N 52°28' E 001°45'0 0.0
2015-Jan-24 02:31N 52°28' E 001°45'0 0.0
2015-Jan-24 00:07N 52°28' E 001°45'0 0.0
2015-Jan-23 23:31N 52°28' E 001°45'0 0.0
2015-Jan-23 22:31N 52°28' E 001°45'0 0.0
2015-Jan-23 21:28N 52°28' E 001°45'0 0.0
2015-Jan-23 20:33N 52°28' E 001°45'0 0.0
2015-Jan-23 19:33N 52°28' E 001°45'0 0.0
2015-Jan-23 18:30N 52°28' E 001°45'0 0.0
2015-Jan-23 17:30N 52°28' E 001°45'0 0.0
2015-Jan-23 16:33N 52°28' E 001°45'0 0.0
2015-Jan-23 15:33N 52°28' E 001°45'0 0.0
2015-Jan-23 14:33N 52°28' E 001°45'0 0.0
2015-Jan-23 13:33N 52°28' E 001°45'0 0.0
2015-Jan-23 12:33N 52°28' E 001°45'0 0.0
2015-Jan-23 11:33N 52°28' E 001°45'0 0.0
2015-Jan-23 10:33N 52°28' E 001°45'1 1.5
2015-Jan-23 09:34N 52°29' E 001°47'4 4.2
2015-Jan-23 08:34N 52°25' E 001°48'4 4.1
2015-Jan-23 07:34N 52°21' E 001°48'5 5.2
2015-Jan-23 06:33N 52°15' E 001°49'7 6.7
2015-Jan-23 05:33N 52°09' E 001°50'8 7.5
2015-Jan-23 04:34N 52°01' E 001°49'9 8.6
2015-Jan-23 03:33N 51°52' E 001°48'9 8.8
2015-Jan-23 02:33N 51°44' E 001°49'9 8.9
2015-Jan-23 01:33N 51°35' E 001°49'9 9.2
2015-Jan-23 00:33N 51°26' E 001°46'9 8.6
2015-Jan-22 23:34N 51°18' E 001°39'9 9.1
2015-Jan-22 22:34N 51°10' E 001°33'9 8.8
2015-Jan-22 21:34N 51°04' E 001°22'14 9.9
2015-Jan-22 20:11N 50°57' E 001°04'5 8.1
2015-Jan-22 19:33N 50°53' E 000°59'1010.2
2015-Jan-22 18:34N 50°47' E 000°45'1010.1
2015-Jan-22 17:33N 50°43' E 000°31'1010.3
2015-Jan-22 16:33N 50°40' E 000°15'2110.4
2015-Jan-22 14:34N 50°35' W 000°16'3110.4
2015-Jan-22 11:33N 50°29' W 001°05'2114.6
2015-Jan-22 10:05N 50°23' W 001°37'5214.9
2015-Jan-22 06:33N 50°12' W 002°57'  

Dump ship's entire track history